Terminal Aerodrome Forecast
Issued by NWS

Home | Current Version | Previous Version | Text Only | Print | Product List | Glossary On
Versions: 1 2 3 4 5 6 7 8 9 10 11 12 13 14 15 16 17 18 19 20
000
FTUS44 KCRP 262329
TAFALI
TAF
KALI 262329Z 2700/2724 15014G20KT P6SM SCT035 BKN050
     FM270300 14012G18KT P6SM BKN025 OVC150
     FM270900 14010KT 6SM BR BKN015
     FM271500 16013G18KT P6SM BKN025
     FM272000 15015G23KT P6SM BKN040=

USA.gov is the U.S. government's official web portal to all federal, state and local government web resources and services.